createdAt,value
2022-11-05T08:42:53.375Z,3.95
2022-11-05T08:50:49.593Z,3.90
2022-11-05T09:06:47.197Z,4.20
2022-11-05T09:09:15.126Z,4.47
2022-11-05T09:12:10.620Z,4.93
2022-11-05T09:56:03.829Z,5.05
2022-11-05T09:58:48.516Z,6.75
2022-11-05T10:01:30.436Z,5.85
2022-11-05T10:07:12.885Z,6.33
2022-11-05T10:09:51.731Z,6.60
2022-11-05T10:29:27.407Z,5.65
2022-11-05T10:34:53.924Z,6.30
2022-11-05T10:37:23.995Z,6.28
2022-11-05T10:39:57.546Z,6.47
2022-11-05T10:42:40.473Z,7.40
2022-11-05T10:45:48.678Z,5.72
2022-11-05T10:51:31.581Z,3.80
2022-11-05T10:59:31.048Z,5.88
2022-11-05T11:05:03.962Z,6.57
2022-11-05T11:10:26.537Z,4.70
2022-11-05T11:12:55.978Z,3.83
2022-11-05T11:18:40.022Z,5.28
2022-11-05T11:21:25.828Z,5.03
2022-11-05T11:35:03.643Z,5.40
2022-11-05T11:50:02.410Z,7.28
2022-11-05T12:01:34.347Z,8.27
2022-11-05T12:04:22.319Z,7.28
2022-11-05T12:07:14.981Z,4.80
2022-11-05T12:10:01.032Z,7.38
2022-11-05T12:15:42.360Z,7.97
2022-11-05T12:25:35.290Z,6.28
2022-11-05T12:34:43.502Z,8.65
2022-11-05T12:37:38.404Z,8.82
2022-11-05T12:40:24.808Z,7.32
2022-11-05T12:43:19.364Z,8.93
2022-11-05T12:46:12.462Z,7.93
2022-11-05T12:48:50.639Z,7.00
2022-11-05T12:51:29.973Z,7.90
2022-11-05T12:54:11.302Z,8.20
2022-11-05T13:02:36.039Z,6.95
2022-11-05T13:05:14.784Z,6.65
2022-11-05T13:10:57.273Z,7.78
2022-11-05T13:13:47.856Z,8.38
2022-11-05T13:16:40.212Z,9.00
2022-11-05T13:19:29.902Z,8.63
2022-11-05T13:22:16.294Z,8.35
2022-11-05T13:24:53.958Z,8.27
2022-11-05T13:27:43.052Z,8.07
2022-11-05T13:30:24.434Z,7.40
2022-11-05T13:36:35.028Z,5.28
2022-11-05T13:39:23.134Z,5.95
2022-11-05T13:42:18.573Z,7.22
2022-11-05T13:47:50.155Z,8.00
2022-11-05T13:50:44.957Z,7.63
2022-11-05T13:53:47.421Z,8.52
2022-11-05T13:56:15.314Z,7.65
2022-11-05T13:59:13.869Z,8.32
2022-11-05T14:01:48.743Z,7.28
2022-11-05T14:04:23.954Z,8.45
2022-11-05T14:06:51.972Z,6.72
2022-11-05T14:09:28.704Z,9.27
2022-11-05T14:12:03.518Z,8.60
2022-11-05T14:14:43.812Z,8.73
2022-11-05T14:17:11.323Z,11.75
2022-11-05T14:20:04.707Z,12.48
2022-11-05T14:22:32.093Z,12.40
2022-11-05T14:25:01.859Z,13.98
2022-11-05T14:27:48.566Z,12.27
2022-11-05T14:30:48.042Z,9.68
2022-11-05T14:33:36.129Z,11.05
2022-11-05T14:36:23.972Z,11.30
2022-11-05T14:42:05.390Z,5.82
2022-11-05T14:44:35.458Z,8.60
2022-11-05T14:47:06.354Z,9.00
2022-11-05T14:52:35.153Z,9.27
2022-11-05T14:55:03.837Z,10.32
2022-11-05T14:57:45.642Z,10.75
2022-11-05T15:00:30.002Z,10.35
2022-11-05T15:03:25.314Z,6.40
2022-11-05T15:06:04.317Z,6.68
2022-11-05T15:11:41.114Z,8.73
2022-11-05T15:14:17.612Z,10.52
2022-11-05T15:17:01.440Z,10.98
2022-11-05T15:19:37.459Z,10.13
2022-11-05T15:25:02.799Z,11.27
2022-11-05T15:27:57.669Z,10.10
2022-11-05T15:30:25.161Z,11.30
2022-11-05T15:32:53.291Z,10.85
2022-11-05T15:35:25.695Z,11.00
2022-11-05T15:38:35.133Z,10.35
2022-11-05T15:41:32.205Z,12.05
2022-11-05T15:44:00.936Z,11.38
2022-11-05T15:46:29.837Z,11.02
2022-11-05T15:49:09.250Z,9.43
2022-11-05T15:51:36.893Z,10.35
2022-11-05T15:54:29.104Z,10.52
2022-11-05T15:56:57.551Z,10.05
2022-11-05T15:59:28.486Z,10.80
2022-11-05T16:02:03.653Z,10.15
2022-11-05T16:04:33.739Z,12.35
2022-11-05T16:07:09.812Z,11.05
2022-11-05T16:09:44.082Z,10.27
2022-11-05T16:12:20.316Z,9.80
2022-11-05T16:15:01.285Z,10.98
2022-11-05T16:17:45.693Z,11.13
2022-11-05T16:23:21.871Z,10.27
2022-11-05T16:25:49.859Z,9.52
2022-11-05T16:28:22.134Z,9.25
2022-11-05T16:31:14.660Z,9.32
2022-11-05T16:33:46.383Z,9.20
2022-11-05T16:36:14.395Z,7.47
2022-11-05T16:38:42.170Z,9.57
2022-11-05T16:41:14.953Z,8.90
2022-11-05T16:43:54.524Z,9.85
2022-11-05T16:46:23.246Z,10.80
2022-11-05T16:51:33.755Z,10.15
